createdAt,value
2023-04-01T00:01:13.036Z,8.18
2023-04-01T00:03:39.667Z,6.95
2023-04-01T00:06:06.847Z,10.68
2023-04-01T00:08:33.578Z,9.13
2023-04-01T00:11:00.960Z,6.65
2023-04-01T00:13:27.780Z,5.72
2023-04-01T00:15:56.131Z,9.95
2023-04-01T00:18:23.812Z,7.50
2023-04-01T00:20:51.801Z,9.25
2023-04-01T00:23:18.988Z,7.97
2023-04-01T00:25:48.743Z,7.35
2023-04-01T00:28:17.482Z,6.45
2023-04-01T00:30:44.225Z,7.43
2023-04-01T00:33:11.568Z,8.45
2023-04-01T00:35:38.370Z,7.20
2023-04-01T00:38:05.382Z,4.63
2023-04-01T00:40:34.890Z,8.43
2023-04-01T00:43:01.972Z,6.30
2023-04-01T00:45:39.010Z,5.18
2023-04-01T00:48:11.172Z,5.28
2023-04-01T00:50:40.540Z,6.07
2023-04-01T00:53:08.208Z,5.57
2023-04-01T00:55:38.215Z,3.53
2023-04-01T00:58:08.117Z,3.55
2023-04-01T01:00:36.858Z,6.38
2023-04-01T01:03:03.614Z,5.53
2023-04-01T01:05:57.969Z,5.25
2023-04-01T01:08:45.135Z,3.05
2023-04-01T01:11:13.228Z,3.70
2023-04-01T01:14:10.174Z,4.38
2023-04-01T01:16:45.500Z,6.15
2023-04-01T01:19:33.336Z,3.97
2023-04-01T01:22:34.763Z,4.72
2023-04-01T01:25:15.927Z,4.65
2023-04-01T01:27:49.241Z,6.53
2023-04-01T01:30:24.711Z,2.58
2023-04-01T01:33:08.829Z,2.88
2023-04-01T01:35:50.942Z,5.88
2023-04-01T01:38:22.314Z,5.93
2023-04-01T01:40:54.725Z,6.80
2023-04-01T01:43:28.889Z,5.22
2023-04-01T01:45:58.751Z,3.72
2023-04-01T01:48:27.535Z,4.32
2023-04-01T01:50:54.698Z,4.53
2023-04-01T01:53:21.436Z,3.35
2023-04-01T01:55:48.605Z,5.93
2023-04-01T01:58:18.721Z,4.53
2023-04-01T02:00:51.615Z,5.28
2023-04-01T02:03:20.352Z,3.58
2023-04-01T02:05:47.194Z,3.53
2023-04-01T02:08:24.753Z,3.08
2023-04-01T02:11:01.434Z,3.67
2023-04-01T02:13:34.601Z,6.65
2023-04-01T02:16:08.408Z,4.72
2023-04-01T02:18:38.331Z,3.88
2023-04-01T02:21:06.739Z,4.57
2023-04-01T02:23:36.604Z,7.68
2023-04-01T02:26:07.568Z,5.43
2023-04-01T02:28:35.224Z,4.10
2023-04-01T02:31:03.604Z,5.07
2023-04-01T02:33:31.965Z,7.15
2023-04-01T02:35:59.353Z,4.45
2023-04-01T02:38:26.014Z,5.60
2023-04-01T02:40:58.994Z,4.95
2023-04-01T02:45:52.152Z,6.97
2023-04-01T02:48:18.595Z,6.38
2023-04-01T02:50:45.269Z,5.57
2023-04-01T02:53:12.252Z,5.40
2023-04-01T02:55:39.125Z,5.28
2023-04-01T02:58:05.718Z,5.95
2023-04-01T03:00:32.227Z,5.18
2023-04-01T03:02:58.831Z,4.38
2023-04-01T03:05:25.784Z,4.22
2023-04-01T03:07:52.432Z,6.63
2023-04-01T03:10:19.303Z,5.50
2023-04-01T03:12:45.878Z,6.53
2023-04-01T03:15:17.271Z,4.65
2023-04-01T03:17:44.316Z,4.15
2023-04-01T03:20:12.092Z,6.53
2023-04-01T03:22:43.017Z,4.07
2023-04-01T03:25:11.508Z,3.78
2023-04-01T03:27:38.406Z,6.85
2023-04-01T03:30:06.705Z,4.15
2023-04-01T03:32:33.602Z,5.65
2023-04-01T03:35:00.147Z,3.53
2023-04-01T03:37:26.580Z,5.43
2023-04-01T03:39:53.163Z,3.88
2023-04-01T03:42:34.826Z,3.13
2023-04-01T03:45:01.452Z,4.68
2023-04-01T03:47:46.782Z,4.40
2023-04-01T03:56:18.353Z,4.05
2023-04-01T03:59:02.998Z,4.32
2023-04-01T04:01:30.634Z,3.35
2023-04-01T04:07:33.568Z,4.40
2023-04-01T04:10:21.653Z,3.13
2023-04-01T04:16:37.637Z,3.15
2023-04-01T04:19:07.041Z,3.55
2023-04-01T04:23:26.638Z,3.15
2023-04-01T04:24:38.919Z,3.25
2023-04-01T04:27:07.675Z,3.50
2023-04-01T04:29:52.063Z,2.95
2023-04-01T04:32:18.691Z,3.90
2023-04-01T04:35:03.594Z,3.28
2023-04-01T04:37:47.748Z,3.47
2023-04-01T04:40:14.377Z,3.10
2023-04-01T04:42:41.014Z,4.10
2023-04-01T04:45:07.908Z,3.15
2023-04-01T04:54:53.525Z,2.25
2023-04-01T05:03:48.795Z,3.13
2023-04-01T05:07:29.942Z,3.13
2023-04-01T05:10:40.765Z,2.60
2023-04-01T05:13:07.944Z,2.03
2023-04-01T05:15:41.052Z,2.00
2023-04-01T05:18:20.919Z,2.30
2023-04-01T05:21:07.597Z,2.50
2023-04-01T05:39:01.647Z,2.78
2023-04-01T05:44:15.459Z,3.10
2023-04-01T05:46:51.110Z,3.22
2023-04-01T05:49:17.750Z,4.28
2023-04-01T05:51:44.319Z,4.00
2023-04-01T05:54:19.813Z,3.90
2023-04-01T05:56:47.642Z,5.38
2023-04-01T05:59:24.519Z,4.93
2023-04-01T06:01:51.286Z,4.70
2023-04-01T06:04:23.592Z,5.68
2023-04-01T06:06:50.175Z,6.55
2023-04-01T06:09:19.246Z,7.00
2023-04-01T06:12:18.925Z,6.20
2023-04-01T06:15:23.081Z,7.47
2023-04-01T06:18:17.831Z,5.75
2023-04-01T06:21:10.781Z,7.15
2023-04-01T06:24:19.487Z,7.28
2023-04-01T06:27:03.954Z,7.30
2023-04-01T06:29:41.497Z,7.15
2023-04-01T06:32:31.806Z,7.50
2023-04-01T06:35:07.404Z,6.18
2023-04-01T06:38:06.193Z,5.65
2023-04-01T06:40:57.186Z,6.05
2023-04-01T06:43:47.423Z,6.35
2023-04-01T06:46:48.479Z,6.18
2023-04-01T06:49:56.568Z,6.53
2023-04-01T06:56:00.756Z,6.05
2023-04-01T06:59:05.127Z,8.25
2023-04-01T07:01:48.153Z,6.32
2023-04-01T07:04:30.750Z,5.82
2023-04-01T07:07:34.687Z,7.70
2023-04-01T07:10:06.198Z,5.57
2023-04-01T07:12:32.728Z,6.15
2023-04-01T07:15:04.861Z,5.55
2023-04-01T07:17:36.430Z,6.00
2023-04-01T07:20:11.569Z,5.38
2023-04-01T07:22:46.071Z,5.32
2023-04-01T07:25:22.114Z,4.97
2023-04-01T07:27:48.987Z,4.57
2023-04-01T07:30:17.339Z,5.75
2023-04-01T07:32:47.890Z,4.15
2023-04-01T07:35:14.410Z,3.65
2023-04-01T07:38:10.375Z,3.95
2023-04-01T07:40:56.343Z,3.20
2023-04-01T07:43:44.046Z,3.45
2023-04-01T07:46:35.995Z,4.30
2023-04-01T07:49:08.688Z,3.75
2023-04-01T07:51:59.690Z,3.67
2023-04-01T07:54:40.540Z,3.58
2023-04-01T07:57:28.385Z,3.88
2023-04-01T08:00:07.408Z,5.43
2023-04-01T08:02:45.657Z,3.90
2023-04-01T08:05:46.507Z,3.83
2023-04-01T08:08:31.308Z,4.68
2023-04-01T08:11:36.524Z,4.55
2023-04-01T08:14:31.857Z,4.57
2023-04-01T08:17:04.180Z,4.90
2023-04-01T08:19:52.852Z,6.75
2023-04-01T08:22:34.373Z,6.72
2023-04-01T08:25:07.670Z,4.90
2023-04-01T08:27:52.343Z,5.50
2023-04-01T08:30:26.798Z,5.28
2023-04-01T08:33:06.167Z,5.68
2023-04-01T08:35:58.804Z,5.47
2023-04-01T08:38:34.073Z,5.20
2023-04-01T08:41:07.438Z,5.45
2023-04-01T08:43:43.108Z,4.93
2023-04-01T08:46:35.798Z,5.00
2023-04-01T08:49:23.939Z,4.70
2023-04-01T08:52:21.364Z,5.13
2023-04-01T08:55:01.793Z,4.95
2023-04-01T08:57:55.426Z,5.68
2023-04-01T09:00:33.447Z,5.03
2023-04-01T09:03:15.441Z,4.97
2023-04-01T09:06:00.907Z,5.00
2023-04-01T09:08:39.717Z,5.20
2023-04-01T09:11:22.584Z,6.28
2023-04-01T09:13:57.963Z,5.93
2023-04-01T09:16:52.435Z,5.80
2023-04-01T09:19:34.062Z,5.65
2023-04-01T09:22:12.866Z,5.15
2023-04-01T09:24:53.476Z,4.35
2023-04-01T09:27:50.319Z,4.47
2023-04-01T09:30:28.980Z,4.85
2023-04-01T09:33:13.782Z,4.95
2023-04-01T09:36:13.447Z,5.22
2023-04-01T09:39:25.154Z,4.28
2023-04-01T09:44:32.688Z,3.53
2023-04-01T09:47:43.948Z,3.72
2023-04-01T09:50:45.937Z,4.03
2023-04-01T09:53:31.187Z,4.18
2023-04-01T09:56:19.684Z,4.22
2023-04-01T09:59:40.294Z,4.78
2023-04-01T10:02:44.581Z,5.07
2023-04-01T10:05:29.828Z,5.00
2023-04-01T10:08:26.978Z,3.80
2023-04-01T10:11:14.125Z,3.53
2023-04-01T10:13:59.477Z,3.42
2023-04-01T10:16:41.312Z,3.67
2023-04-01T10:19:32.045Z,4.82
2023-04-01T10:22:20.135Z,4.18
2023-04-01T10:25:19.621Z,5.05
2023-04-01T10:28:18.044Z,4.97
2023-04-01T10:31:18.688Z,4.75
2023-04-01T10:34:10.208Z,4.68
2023-04-01T10:36:53.109Z,4.22
2023-04-01T10:39:41.001Z,4.18
2023-04-01T10:42:22.694Z,4.38
2023-04-01T10:45:35.455Z,3.22
2023-04-01T10:48:26.976Z,2.80
2023-04-01T10:51:22.652Z,2.15
2023-04-01T10:54:04.304Z,1.73
2023-04-01T10:56:58.014Z,1.55
2023-04-01T10:59:58.576Z,1.13
2023-04-01T11:02:37.104Z,1.38
2023-04-01T11:05:46.004Z,1.38
2023-04-01T11:08:37.508Z,1.73
2023-04-01T11:11:22.595Z,1.88
2023-04-01T11:14:10.305Z,1.98
2023-04-01T11:17:07.524Z,1.80
2023-04-01T11:19:45.939Z,1.70
2023-04-01T11:22:46.206Z,2.15
2023-04-01T11:25:41.458Z,2.38
2023-04-01T11:28:25.874Z,2.70
2023-04-01T11:31:17.312Z,3.13
2023-04-01T11:33:49.846Z,3.28
2023-04-01T11:36:31.269Z,4.15
2023-04-01T11:39:02.575Z,4.28
2023-04-01T11:41:46.857Z,4.50
2023-04-01T11:44:18.905Z,5.18
2023-04-01T11:47:34.150Z,5.72
2023-04-01T11:50:23.475Z,5.65
2023-04-01T11:53:08.198Z,5.40
2023-04-01T11:55:41.879Z,5.45
2023-04-01T11:58:14.082Z,5.43
2023-04-01T12:01:07.487Z,5.68
2023-04-01T12:06:47.413Z,5.50
2023-04-01T12:09:35.864Z,6.15
2023-04-01T12:12:36.008Z,5.20
2023-04-01T12:15:27.429Z,4.78
2023-04-01T12:18:02.027Z,4.68
2023-04-01T12:20:42.525Z,5.00
2023-04-01T12:23:39.747Z,5.32
2023-04-01T12:26:21.631Z,5.22
2023-04-01T12:29:21.242Z,4.85
2023-04-01T12:31:52.441Z,3.67
2023-04-01T12:34:40.692Z,2.78
2023-04-01T12:37:28.056Z,2.72
2023-04-01T12:40:21.114Z,5.88
2023-04-01T12:43:06.020Z,2.53
2023-04-01T12:45:41.223Z,2.50
2023-04-01T12:48:25.971Z,2.75
2023-04-01T12:51:17.006Z,3.20
2023-04-01T12:53:58.772Z,3.13
2023-04-01T12:56:39.908Z,3.03
2023-04-01T12:59:36.759Z,3.45
2023-04-01T13:02:14.905Z,3.55
2023-04-01T13:04:57.182Z,3.70
2023-04-01T13:07:29.131Z,4.07
2023-04-01T13:10:16.581Z,3.72
2023-04-01T13:12:52.334Z,3.90
2023-04-01T13:15:43.956Z,4.30
2023-04-01T13:18:20.982Z,4.60
2023-04-01T13:21:11.380Z,5.35
2023-04-01T13:23:57.379Z,4.88
2023-04-01T13:26:33.615Z,4.75
2023-04-01T13:29:06.619Z,3.85
2023-04-01T13:34:25.025Z,3.78
2023-04-01T13:36:54.433Z,6.43
2023-04-01T13:39:36.157Z,3.95
2023-04-01T13:42:12.480Z,3.25
2023-04-01T13:44:50.782Z,3.63
2023-04-01T13:47:26.326Z,3.20
2023-04-01T13:50:00.605Z,3.40
2023-04-01T13:52:47.589Z,2.80
2023-04-01T13:55:25.813Z,2.47
2023-04-01T13:58:28.621Z,3.25
2023-04-01T14:01:14.365Z,4.57
2023-04-01T14:04:14.885Z,3.35
2023-04-01T14:06:56.156Z,3.63
2023-04-01T14:09:38.071Z,4.45
2023-04-01T14:12:40.725Z,3.60
2023-04-01T14:16:02.778Z,3.83
2023-04-01T14:18:56.186Z,2.72
2023-04-01T14:21:34.697Z,3.20
2023-04-01T14:24:01.109Z,3.20
2023-04-01T14:26:36.943Z,2.78
2023-04-01T14:29:12.375Z,3.58
2023-04-01T14:32:25.395Z,3.00
2023-04-01T14:35:01.287Z,2.23
2023-04-01T14:38:03.681Z,2.50
2023-04-01T14:40:49.005Z,3.58
2023-04-01T14:43:44.656Z,2.72
2023-04-01T14:46:42.278Z,3.08
2023-04-01T14:49:42.429Z,2.45
2023-04-01T14:52:17.141Z,2.42
2023-04-01T14:54:49.301Z,3.30
2023-04-01T14:57:24.851Z,2.67
2023-04-01T15:00:04.459Z,1.73
2023-04-01T15:02:59.863Z,1.05
2023-04-01T15:05:44.909Z,1.83
2023-04-01T15:08:31.076Z,1.48
2023-04-01T15:11:01.169Z,2.40
2023-04-01T15:13:30.979Z,1.58
2023-04-01T15:15:57.545Z,1.50
2023-04-01T15:18:41.302Z,1.48
2023-04-01T15:21:17.931Z,1.60
2023-04-01T15:23:53.532Z,1.70
2023-04-01T15:26:30.072Z,1.25
2023-04-01T15:29:23.147Z,1.65
2023-04-01T15:31:53.869Z,1.58
2023-04-01T15:34:28.583Z,1.20
2023-04-01T15:37:05.481Z,0.90
2023-04-01T15:39:58.642Z,1.20
2023-04-01T15:42:28.659Z,0.90
2023-04-01T15:45:08.103Z,0.90
2023-04-01T15:48:14.487Z,0.68
2023-04-01T15:50:52.430Z,0.85
2023-04-01T15:53:31.801Z,1.13
2023-04-01T15:56:01.249Z,0.85
2023-04-01T15:58:40.992Z,0.60
2023-04-01T16:01:13.121Z,0.68
2023-04-01T16:04:07.939Z,0.60
2023-04-01T16:06:52.687Z,0.63
2023-04-01T16:09:34.439Z,1.02
2023-04-01T16:12:26.257Z,0.60
2023-04-01T16:14:55.930Z,0.70
2023-04-01T16:17:32.201Z,1.30
2023-04-01T16:20:07.595Z,0.50
2023-04-01T16:22:39.097Z,0.60
2023-04-01T16:25:18.593Z,0.50
2023-04-01T16:27:48.102Z,0.60
2023-04-01T16:30:33.358Z,0.70
2023-04-01T16:33:18.753Z,0.50
2023-04-01T16:36:00.912Z,0.60
2023-04-01T16:38:30.514Z,0.80
2023-04-01T16:41:20.654Z,0.60
2023-04-01T16:44:12.440Z,0.57
2023-04-01T16:46:47.359Z,0.75
2023-04-01T16:49:14.220Z,0.60
2023-04-01T16:51:55.935Z,0.60
2023-04-01T16:54:22.381Z,2.17
2023-04-01T16:56:54.910Z,2.42
2023-04-01T16:59:48.699Z,0.68
2023-04-01T17:02:21.536Z,0.50
2023-04-01T17:04:54.896Z,0.70
2023-04-01T17:07:33.839Z,0.55
2023-04-01T17:10:23.542Z,0.68
2023-04-01T17:13:09.272Z,0.95
2023-04-01T17:16:01.587Z,0.68
2023-04-01T17:18:38.309Z,0.65
2023-04-01T17:21:29.258Z,0.90
2023-04-01T17:24:07.424Z,0.75
2023-04-01T17:26:52.781Z,0.60
2023-04-01T17:29:24.394Z,0.65
2023-04-01T17:32:03.824Z,0.65
2023-04-01T17:34:48.672Z,2.30
2023-04-01T17:37:33.945Z,0.77
2023-04-01T17:40:12.500Z,0.75
2023-04-01T17:43:04.745Z,0.63
2023-04-01T17:45:46.261Z,1.23
2023-04-01T17:48:25.033Z,0.60
2023-04-01T17:51:05.577Z,0.80
2023-04-01T17:53:46.384Z,0.63
2023-04-01T17:56:50.655Z,0.90
2023-04-01T17:59:41.751Z,0.95
2023-04-01T18:02:43.857Z,0.75
2023-04-01T18:05:25.931Z,0.90
2023-04-01T18:08:06.673Z,0.80
2023-04-01T18:11:01.467Z,0.80
2023-04-01T18:14:00.796Z,2.40
2023-04-01T18:16:39.392Z,1.00
2023-04-01T18:19:20.501Z,0.77
2023-04-01T18:21:51.671Z,0.98
2023-04-01T18:24:21.319Z,1.05
2023-04-01T18:27:03.151Z,0.80
2023-04-01T18:30:03.229Z,0.70
2023-04-01T18:32:45.976Z,0.88
2023-04-01T18:35:49.505Z,0.98
2023-04-01T18:38:19.231Z,0.90
2023-04-01T18:40:55.423Z,1.20
2023-04-01T18:43:43.053Z,1.08
2023-04-01T18:46:48.432Z,1.00
2023-04-01T18:49:37.202Z,1.13
2023-04-01T18:52:28.648Z,1.00
2023-04-01T18:55:04.346Z,1.30
2023-04-01T18:57:46.346Z,1.30
2023-04-01T19:00:34.942Z,1.35
2023-04-01T19:03:33.211Z,1.23
2023-04-01T19:06:09.908Z,1.45
2023-04-01T19:08:41.107Z,1.55
2023-04-01T19:11:11.578Z,1.50
2023-04-01T19:13:54.593Z,1.30
2023-04-01T19:16:44.779Z,1.30
2023-04-01T19:19:43.868Z,1.30
2023-04-01T19:22:39.554Z,1.17
2023-04-01T19:25:28.666Z,1.02
2023-04-01T19:28:08.499Z,1.30
2023-04-01T19:31:19.780Z,1.60
2023-04-01T19:34:09.239Z,1.40
2023-04-01T19:36:57.235Z,1.30
2023-04-01T19:39:36.086Z,1.50
2023-04-01T19:42:09.652Z,1.60
2023-04-01T19:44:39.161Z,1.38
2023-04-01T19:47:14.385Z,1.30
2023-04-01T19:50:03.351Z,1.40
2023-04-01T19:52:38.518Z,1.35
2023-04-01T19:55:23.148Z,1.73
2023-04-01T19:58:06.812Z,1.20
2023-04-01T20:00:48.509Z,1.67
2023-04-01T20:03:34.015Z,1.45
2023-04-01T20:06:38.338Z,1.90
2023-04-01T20:09:32.562Z,1.40
2023-04-01T20:12:10.169Z,1.90
2023-04-01T20:14:42.659Z,1.45
2023-04-01T20:17:35.600Z,1.45
2023-04-01T20:20:09.542Z,1.73
2023-04-01T20:22:45.471Z,1.40
2023-04-01T20:25:23.774Z,1.70
2023-04-01T20:28:10.829Z,1.35
2023-04-01T20:30:55.591Z,1.98
2023-04-01T20:33:22.046Z,1.55
2023-04-01T20:35:58.338Z,1.30
2023-04-01T20:38:58.089Z,1.30
2023-04-01T20:41:28.331Z,1.40
2023-04-01T20:44:16.505Z,1.63
2023-04-01T20:47:23.360Z,4.90
2023-04-01T20:50:12.552Z,1.40
2023-04-01T20:52:47.248Z,1.40
2023-04-01T20:55:13.810Z,1.65
2023-04-01T20:57:58.522Z,1.38
2023-04-01T21:00:54.490Z,2.20
2023-04-01T21:03:46.633Z,1.25
2023-04-01T21:06:13.140Z,1.77
2023-04-01T21:09:24.229Z,1.90
2023-04-01T21:12:12.109Z,4.05
2023-04-01T21:15:06.033Z,3.38
2023-04-01T21:17:54.227Z,2.58
2023-04-01T21:20:48.340Z,2.33
2023-04-01T21:23:44.270Z,5.00
2023-04-01T21:26:20.617Z,2.35
2023-04-01T21:29:05.859Z,2.55
2023-04-01T21:31:59.636Z,2.40
2023-04-01T21:34:47.792Z,2.42
2023-04-01T21:37:29.799Z,3.22
2023-04-01T21:40:19.250Z,2.80
2023-04-01T21:45:14.800Z,2.70
2023-04-01T21:48:13.456Z,4.25
2023-04-01T21:50:58.537Z,2.20
2023-04-01T21:53:39.830Z,4.18
2023-04-01T21:56:26.694Z,3.47
2023-04-01T21:59:13.411Z,2.58
2023-04-01T22:01:48.835Z,3.38
2023-04-01T22:04:25.521Z,2.75
2023-04-01T22:07:07.958Z,2.53
2023-04-01T22:09:46.746Z,3.95
2023-04-01T22:12:24.080Z,3.33
2023-04-01T22:15:20.940Z,2.30
2023-04-01T22:18:15.165Z,3.33
2023-04-01T22:21:17.300Z,3.28
2023-04-01T22:23:58.915Z,3.63
2023-04-01T22:26:52.365Z,2.67
2023-04-01T22:32:17.418Z,5.50
2023-04-01T22:34:53.283Z,3.65
2023-04-01T22:37:46.491Z,3.13
2023-04-01T22:40:28.561Z,5.60
2023-04-01T22:43:03.322Z,3.78
2023-04-01T22:45:41.673Z,4.15
2023-04-01T22:48:23.389Z,4.43
2023-04-01T22:51:18.837Z,5.43
2023-04-01T22:54:15.467Z,3.92
2023-04-01T22:56:49.552Z,7.30
2023-04-01T22:59:28.958Z,5.18
2023-04-01T23:02:12.646Z,4.97
2023-04-01T23:04:43.243Z,4.45
2023-04-01T23:07:47.762Z,5.32
2023-04-01T23:10:27.288Z,5.05
2023-04-01T23:12:58.531Z,5.68
2023-04-01T23:15:25.554Z,5.63
2023-04-01T23:18:38.174Z,5.35
2023-04-01T23:21:19.035Z,5.30
2023-04-01T23:24:04.124Z,5.53
2023-04-01T23:26:30.497Z,5.65
2023-04-01T23:29:00.278Z,5.10
2023-04-01T23:31:34.580Z,4.40
2023-04-01T23:34:12.947Z,5.80
2023-04-01T23:36:51.669Z,7.63
2023-04-01T23:39:24.135Z,6.50
2023-04-01T23:41:54.038Z,7.78
2023-04-01T23:44:21.675Z,5.88
2023-04-01T23:46:49.808Z,4.47
2023-04-01T23:49:25.608Z,6.03
2023-04-01T23:52:00.276Z,6.30
2023-04-01T23:54:42.298Z,5.60
2023-04-01T23:57:19.884Z,4.55
